Terminal Aerodrome Forecast
Issued by NWS

Home | Current Version | Previous Version | Text Only | Print | Product List | Glossary On
Versions: 1 2 3 4 5 6 7 8 9 10 11 12
000
FTAK31 PAFA 250537
TAFABT
TAF
PABT 250537Z 2506/2606 03005KT P6SM SCT050 BKN080 BKN250
     FM251400 02005KT P6SM VCSH BKN050 OVC120
     FM252200 06007KT P6SM SCT050 SCT100 BKN200=

USA.gov is the U.S. government's official web portal to all federal, state and local government web resources and services.